METAR ET TAF INFORMATION
METAR FOR LFCR
ADDS - METARS form results

(2142 UTC 26 May 2020)
Data provider http://aviationweather.gov/metar/data/
 
METAR text: LFCR 262130Z AUTO 02005KT CAVOK 17/06 Q1028 NOSIG
Conditions at: LFCR (RODEZ/MARCILLAC , FR) observed 2130 UTC 26 May 2020
Temperature: 17.0°C (63°F)
Dewpoint: 6.0°C (43°F) [RH = 48%]
Pressure (altimeter): 30.35 inches Hg (1028.0 mb)
Winds: from the NNE (20 degrees) at 6 MPH (5 knots; 2.6 m/s)
Visibility: 6 or more miles (10+ km)
Ceiling: ceiling and visibility are OK
Clouds: unknown
Weather: no significant weather observed at this time

METAR text: LFCR 262100Z AUTO 02007KT CAVOK 18/06 Q1028 NOSIG
Conditions at: LFCR (RODEZ/MARCILLAC , FR) observed 2100 UTC 26 May 2020
Temperature: 18.0°C (64°F)
Dewpoint: 6.0°C (43°F) [RH = 45%]
Pressure (altimeter): 30.35 inches Hg (1028.0 mb)
Winds: from the NNE (20 degrees) at 8 MPH (7 knots; 3.6 m/s)
Visibility: 6 or more miles (10+ km)
Ceiling: ceiling and visibility are OK
Clouds: unknown
Weather: no significant weather observed at this time

Forecast for: LFCR (RODEZ/MARCILLAC , FR)
Text: TAF LFCR 261700Z 2618/2718 33008KT CAVOK
Forecast period: 1800 UTC 26 May 2020 to 0300 UTC 27 May 2020
Forecast type: FROM: standard forecast or significant change
Winds: from the NNW (330 degrees) at 9 MPH (8 knots; 4.1 m/s)
Visibility: 6 or more miles 10+ km)
Ceiling: unknown
Clouds: missing
Weather: NSW  (no significant weather)
Text: BECMG 2703/2705 VRB02KT
Forecast period: 0300 to 1800 UTC 27 May 2020
Forecast type: BECOMING: Conditions expected to become as follows by 0500 UTC 27 May 2020
Winds: variable direction winds at 2 MPH (2 knots; 1.0 m/s)
Visibility: 6 or more miles 10+ km)
Ceiling: unknown
Clouds: missing
Weather: NSW  (no significant weather)

 AÉROPORT DE AÉROPORT

 INFORMATIONS DE PISTE
Piste 13 Longueur de la piste 6693 ft Largeur de la piste 148 ft
Élévation de la piste 1910 ft Seuil de la piste déplacés 0 ft Runway heading 130
Piste 31 Longueur de la piste 6693 ft Largeur de la piste 148 ft
Élévation de la piste 1895 ft Seuil de la piste déplacés 164 ft Runway heading 310

 AÉROPORT FRÉQUENCES
Type APP Nom RODEZ APP Féquence 125.375 MHZ
Type TWR Nom RODEZ TWR Féquence 118.125 MHZ

 SIDA DE NAVIGATION



Powered by Virtual Airlines Manager [v2.6.2]